Time;durP1;ratioP1;P1;durP2;ratioP2;P2;SDS_P1;SDS_P2;PMS_P1;PMS_P2;Temp;Humidity;BMP_temperature;BMP_pressure;BME280_temperature;BME280_humidity;BME280_pressure;Samples;Min_cycle;Max_cycle;Signal;HPM_P1;HPM_P2
2024/03/22 05:41:33;;;;;;;;;;;;;;;1.61;100.00;100495.02;106822;1292;22562;-56
2024/03/22 05:44:13;;;;;;;;;;;;;;;1.67;100.00;100496.42;106787;1298;23194;-57
2024/03/22 05:46:53;;;;;;;;;;;;;;;1.76;100.00;100494.36;106771;1301;22846;-53
2024/03/22 05:49:26;;;;;;;;;;;;;;;1.83;100.00;100491.36;106467;1295;22579;-57
2024/03/22 05:52:06;;;;;;;;;;;;;;;1.89;100.00;100488.33;106103;1300;22606;-56
2024/03/22 05:54:55;;;;;;;;;;;;;;;1.95;100.00;100488.91;106334;1298;23496;-56
2024/03/22 05:58:24;;;;;;;;;;;;;;;2.01;100.00;100491.35;107035;1300;22561;-56
2024/03/22 06:01:11;;;;;;;;;;;;;;;2.09;100.00;100486.70;106360;1295;22650;-54
2024/03/22 06:03:55;;;;;;;;;;;;;;;2.21;100.00;100485.39;106727;1300;23239;-54
2024/03/22 06:06:42;;;;;;;;;;;;;;;2.37;100.00;100482.37;105936;1295;22614;-54
2024/03/22 06:09:24;;;;;;;;;;;;;;;2.53;100.00;100485.85;106013;1298;22582;-54
2024/03/22 06:12:09;;;;;;;;;;;;;;;2.68;100.00;100486.91;107066;1298;22689;-56
2024/03/22 06:15:07;;;;;;;;;;;;;;;2.80;100.00;100484.73;106646;1298;22576;-57
2024/03/22 06:17:59;;;;;;;;;;;;;;;2.97;100.00;100486.52;106884;1295;23441;-58
2024/03/22 06:21:03;;;;;;;;;;;;;;;3.18;100.00;100486.52;106462;1299;24198;-55
2024/03/22 08:34:09;;;;;;;40.30;25.80;;;;;;;7.36;100.00;100422.51;107128;1297;557750;-55
2024/03/22 08:36:41;;;;;;;35.10;23.70;;;;;;;7.66;100.00;100424.69;107484;1286;1788013;-47
2024/03/22 08:39:12;;;;;;;35.10;24.30;;;;;;;7.78;100.00;100418.94;109263;1281;22285;-55
2024/03/22 08:41:40;;;;;;;42.20;24.40;;;;;;;7.86;100.00;100415.58;109509;1280;22750;-55
2024/03/22 08:44:08;;;;;;;35.80;24.40;;;;;;;7.94;100.00;100415.85;109752;1275;22409;-48
2024/03/22 08:46:36;;;;;;;40.80;26.10;;;;;;;8.08;100.00;100414.11;109805;1278;22360;-47
2024/03/22 08:49:04;;;;;;;34.40;24.20;;;;;;;8.27;100.00;100406.86;109856;1281;22422;-54
2024/03/22 08:51:32;;;;;;;39.50;25.00;;;;;;;8.47;100.00;100407.64;109786;1278;22403;-48
2024/03/22 08:54:00;;;;;;;36.20;22.30;;;;;;;8.64;100.00;100409.38;109829;1280;22396;-47
2024/03/22 08:56:29;;;;;;;34.50;22.20;;;;;;;8.80;99.87;100409.68;109562;1275;22656;-56
2024/03/22 08:58:59;;;;;;;31.40;20.60;;;;;;;8.96;99.39;100408.27;109784;1276;23050;-56
2024/03/22 09:01:26;;;;;;;36.50;20.90;;;;;;;9.08;98.79;100400.70;109477;1276;25368;-56
2024/03/22 09:03:54;;;;;;;36.00;21.90;;;;;;;9.21;98.54;100395.41;109451;1276;22862;-48
2024/03/22 09:06:22;;;;;;;29.30;19.40;;;;;;;9.40;98.28;100394.48;109772;1273;23405;-56
2024/03/22 09:08:50;;;;;;;34.20;20.00;;;;;;;9.57;97.40;100390.59;109399;1279;22790;-46
2024/03/22 09:11:18;;;;;;;28.70;17.90;;;;;;;9.71;95.87;100388.74;109633;1275;25253;-56
2024/03/22 09:13:49;;;;;;;29.00;19.00;;;;;;;9.79;94.91;100385.14;109343;1273;23254;-54
2024/03/22 09:16:17;;;;;;;26.80;18.40;;;;;;;9.87;94.91;100380.98;109631;1279;22413;-46
2024/03/22 09:18:46;;;;;;;30.60;19.70;;;;;;;9.96;93.75;100376.48;109310;1280;22638;-47
2024/03/22 09:21:13;;;;;;;31.90;18.50;;;;;;;10.03;93.23;100376.52;109126;1280;22279;-55
2024/03/22 09:23:41;;;;;;;27.60;18.70;;;;;;;10.10;93.78;100376.35;109663;1273;22417;-55
2024/03/22 09:26:10;;;;;;;32.00;18.80;;;;;;;10.26;94.03;100374.16;109718;1276;22217;-47
2024/03/22 09:28:38;;;;;;;28.00;17.50;;;;;;;10.46;93.46;100377.17;109766;1281;23066;-47
2024/03/22 09:31:07;;;;;;;26.60;17.90;;;;;;;10.64;92.82;100373.72;109911;1275;23449;-47
2024/03/22 09:33:35;;;;;;;33.90;18.40;;;;;;;10.83;92.17;100369.88;109291;1279;22732;-47
2024/03/22 09:36:03;;;;;;;28.00;16.60;;;;;;;10.95;90.91;100370.24;109796;1281;22378;-55
2024/03/22 09:38:31;;;;;;;27.20;17.00;;;;;;;11.02;89.46;100368.31;109807;1273;23323;-54
2024/03/22 09:40:58;;;;;;;32.50;17.10;;;;;;;11.14;88.77;100369.18;109825;1277;22360;-47
2024/03/22 09:43:29;;;;;;;28.20;16.30;;;;;;;11.27;87.56;100364.44;109718;1281;22805;-47
2024/03/22 09:45:57;;;;;;;21.50;14.90;;;;;;;11.37;86.26;100360.75;108970;1273;23451;-47
2024/03/22 09:48:24;;;;;;;24.90;16.40;;;;;;;11.46;85.47;100360.38;109466;1281;22421;-47
2024/03/22 09:50:52;;;;;;;31.80;15.00;;;;;;;11.57;85.12;100358.25;109748;1273;22297;-48
2024/03/22 09:53:22;;;;;;;20.30;14.70;;;;;;;11.72;85.36;100359.27;109667;1281;22522;-47
2024/03/22 09:55:49;;;;;;;24.30;14.40;;;;;;;11.92;84.61;100358.69;109779;1281;22303;-48
2024/03/22 09:58:17;;;;;;;20.10;13.40;;;;;;;12.00;83.17;100354.10;109705;1280;22507;-51
2024/03/22 10:00:44;;;;;;;19.80;12.80;;;;;;;11.99;82.11;100353.40;109666;1281;22721;-54
2024/03/22 10:03:12;;;;;;;21.80;14.80;;;;;;;11.97;81.65;100351.14;109683;1275;23403;-60
2024/03/22 10:05:39;;;;;;;23.50;15.10;;;;;;;12.00;81.63;100346.92;109737;1281;22874;-59
2024/03/22 10:08:12;;;;;;;24.30;13.90;;;;;;;12.07;81.11;100346.56;109774;1273;22201;-53
2024/03/22 10:10:43;;;;;;;21.60;14.60;;;;;;;12.09;80.94;100344.96;109774;1278;22431;-56
2024/03/22 10:13:12;;;;;;;19.10;12.10;;;;;;;12.06;80.20;100345.69;109630;1275;23788;-60
2024/03/22 10:15:39;;;;;;;21.20;13.70;;;;;;;12.02;77.79;100341.52;109707;1281;22889;-56
2024/03/22 10:18:08;;;;;;;19.00;13.40;;;;;;;12.02;77.69;100342.55;109259;1279;22511;-54
2024/03/22 10:20:38;;;;;;;20.40;13.20;;;;;;;12.18;77.89;100339.33;109800;1279;21905;-54
2024/03/22 10:23:07;;;;;;;24.00;13.80;;;;;;;12.41;77.03;100337.77;109579;1266;23315;-52
2024/03/22 10:25:35;;;;;;;15.20;10.90;;;;;;;12.55;75.53;100339.08;109811;1273;22404;-50
2024/03/22 10:28:03;;;;;;;19.20;11.50;;;;;;;12.87;74.56;100331.47;109820;1275;22268;-51
2024/03/22 10:30:31;;;;;;;18.70;10.90;;;;;;;13.29;73.22;100329.85;109700;1278;23583;-58
2024/03/22 10:33:02;;;;;;;16.70;9.70;;;;;;;13.66;72.13;100322.95;109587;1281;22471;-51
2024/03/22 10:35:29;;;;;;;14.90;10.00;;;;;;;13.89;69.47;100322.32;109717;1281;23013;-52
2024/03/22 10:37:57;;;;;;;14.70;10.10;;;;;;;14.24;69.58;100320.08;109728;1281;22224;-52
2024/03/22 10:40:24;;;;;;;14.30;10.20;;;;;;;14.80;67.49;100318.89;109776;1281;22454;-57
2024/03/22 10:42:52;;;;;;;15.10;9.10;;;;;;;14.95;65.74;100316.15;109794;1281;22470;-57
2024/03/22 10:45:25;;;;;;;15.70;9.00;;;;;;;15.05;64.99;100314.05;109839;1281;23725;-51
2024/03/22 10:47:52;;;;;;;13.50;8.60;;;;;;;15.21;62.47;100308.48;109820;1281;22190;-57
2024/03/22 10:50:20;;;;;;;12.80;8.40;;;;;;;15.17;58.47;100307.86;109846;1281;23043;-52
2024/03/22 10:52:52;;;;;;;14.80;9.50;;;;;;;15.23;58.27;100307.23;109874;1281;22148;-52
2024/03/22 10:55:22;;;;;;;12.10;7.90;;;;;;;15.23;56.99;100308.63;109767;1281;22570;-50
2024/03/22 10:57:51;;;;;;;15.50;8.50;;;;;;;15.45;57.58;100301.53;109466;1281;22211;-52
2024/03/22 11:00:27;;;;;;;11.40;9.10;;;;;;;15.53;57.47;100303.30;109233;1280;22536;-60
2024/03/22 11:02:54;;;;;;;14.00;8.30;;;;;;;15.58;56.40;100303.55;107328;1281;25683;-53
2024/03/22 11:05:22;;;;;;;12.80;9.20;;;;;;;15.57;55.07;100297.60;109073;1266;22313;-57
2024/03/22 11:08:05;;;;;;;11.70;8.30;;;;;;;15.72;54.70;100300.30;108953;1274;22659;-59
2024/03/22 11:10:36;;;;;;;14.10;10.20;;;;;;;16.23;54.02;100295.47;107389;1281;24305;-58
2024/03/22 11:13:04;;;;;;;10.70;8.60;;;;;;;16.93;53.83;100285.34;107962;1281;23008;-52
2024/03/22 11:15:33;;;;;;;14.30;9.20;;;;;;;17.57;51.28;100282.68;106815;1281;24262;-52
2024/03/22 11:18:00;;;;;;;12.70;8.90;;;;;;;17.71;48.88;100276.11;108777;1281;23220;-58
2024/03/22 11:20:29;;;;;;;16.50;9.60;;;;;;;17.82;48.82;100269.11;109776;1276;22412;-58
2024/03/22 11:22:59;;;;;;;11.50;8.30;;;;;;;18.11;48.55;100267.68;109688;1276;22998;-58
2024/03/22 11:25:27;;;;;;;12.30;8.70;;;;;;;18.43;46.92;100264.38;109851;1281;22747;-58
2024/03/22 11:27:55;;;;;;;16.30;9.20;;;;;;;18.81;45.84;100262.77;109891;1281;22296;-52
2024/03/22 11:30:24;;;;;;;13.60;8.80;;;;;;;19.20;45.24;100262.42;109892;1281;22212;-52
2024/03/22 11:32:52;;;;;;;12.10;9.10;;;;;;;19.48;44.64;100256.50;109930;1274;22292;-53
2024/03/22 11:35:19;;;;;;;14.80;9.20;;;;;;;19.26;43.76;100255.34;109079;1281;22996;-51
2024/03/22 11:37:47;;;;;;;16.00;8.40;;;;;;;18.71;43.72;100253.38;109897;1281;23023;-55
2024/03/22 11:40:14;;;;;;;12.60;8.20;;;;;;;18.05;44.16;100250.56;109886;1281;22409;-57
2024/03/22 11:42:43;;;;;;;11.40;8.30;;;;;;;17.43;44.91;100243.92;109906;1281;22217;-56
2024/03/22 11:45:10;;;;;;;10.20;7.80;;;;;;;17.05;45.10;100236.55;109928;1281;22197;-52
2024/03/22 11:47:38;;;;;;;17.20;8.60;;;;;;;17.00;45.89;100233.35;108405;1282;25490;-52
2024/03/22 11:50:06;;;;;;;10.20;6.90;;;;;;;17.28;45.79;100228.70;109086;1281;22605;-58
2024/03/22 11:52:35;;;;;;;11.70;8.60;;;;;;;17.35;44.49;100226.02;107888;1280;24225;-52
2024/03/22 11:55:02;;;;;;;12.60;8.20;;;;;;;17.13;45.77;100223.30;109632;1281;22972;-57
2024/03/22 11:57:30;;;;;;;12.90;8.50;;;;;;;17.06;46.47;100220.15;109861;1280;23105;-52
2024/03/22 12:00:01;;;;;;;14.10;8.20;;;;;;;17.03;46.54;100217.41;109874;1279;22829;-50
2024/03/22 12:02:45;;;;;;;10.90;8.00;;;;;;;16.64;46.50;100215.96;109941;1281;22253;-56
2024/03/22 12:05:13;;;;;;;10.80;7.80;;;;;;;16.14;46.64;100213.86;109721;1281;22273;-51
2024/03/22 12:07:40;;;;;;;12.20;8.20;;;;;;;15.65;47.43;100213.75;109875;1281;22330;-51
2024/03/22 12:10:08;;;;;;;15.00;8.90;;;;;;;15.28;48.79;100213.30;109883;1281;22922;-52
2024/03/22 12:12:36;;;;;;;14.10;8.90;;;;;;;15.05;49.15;100210.78;109910;1281;22297;-53
2024/03/22 12:15:04;;;;;;;11.90;8.70;;;;;;;14.89;50.69;100208.80;109344;1282;22344;-51
2024/03/22 12:17:31;;;;;;;10.20;7.10;;;;;;;14.82;49.80;100207.54;109919;1282;22230;-57
2024/03/22 12:19:59;;;;;;;15.40;9.10;;;;;;;14.74;50.09;100206.45;109932;1281;22438;-57
2024/03/22 12:22:26;;;;;;;11.90;8.30;;;;;;;14.78;51.15;100204.27;109907;1281;22289;-51
2024/03/22 12:24:54;;;;;;;15.40;8.40;;;;;;;14.82;50.68;100200.34;109718;1281;24218;-51
2024/03/22 12:27:21;;;;;;;10.50;8.10;;;;;;;14.64;50.87;100197.69;108002;1281;22542;-52
2024/03/22 12:29:49;;;;;;;11.50;7.30;;;;;;;14.32;50.94;100200.49;109290;1281;23370;-51
2024/03/22 12:32:16;;;;;;;12.90;8.10;;;;;;;14.02;51.55;100201.33;109902;1281;22374;-57
2024/03/22 12:34:44;;;;;;;12.80;7.60;;;;;;;13.84;52.70;100197.74;109823;1282;22984;-51
2024/03/22 12:37:11;;;;;;;10.00;7.30;;;;;;;13.68;53.55;100197.11;108417;1273;22304;-57
2024/03/22 12:39:39;;;;;;;13.30;7.40;;;;;;;13.56;53.53;100192.02;109867;1281;22431;-57
2024/03/22 12:42:06;;;;;;;11.70;7.80;;;;;;;13.63;53.30;100190.52;109843;1281;22421;-51
2024/03/22 12:44:33;;;;;;;15.20;10.00;;;;;;;13.89;52.01;100191.02;109902;1281;22872;-56
2024/03/22 12:47:01;;;;;;;14.40;8.80;;;;;;;14.09;53.02;100190.19;109906;1281;22220;-56
2024/03/22 12:49:28;;;;;;;12.80;8.30;;;;;;;14.21;53.40;100189.46;109888;1281;22617;-56
2024/03/22 12:51:56;;;;;;;13.90;8.40;;;;;;;14.29;52.75;100190.71;109910;1281;22196;-55
2024/03/22 12:54:25;;;;;;;12.00;7.80;;;;;;;14.39;52.73;100190.72;109879;1280;22172;-53
2024/03/22 12:56:52;;;;;;;10.80;7.70;;;;;;;14.43;52.91;100190.13;109928;1281;22219;-50
2024/03/22 12:59:20;;;;;;;18.20;8.40;;;;;;;14.34;52.33;100185.72;109898;1282;23096;-51
2024/03/22 13:01:47;;;;;;;14.60;8.00;;;;;;;14.07;52.43;100187.56;109883;1281;22177;-56
2024/03/22 13:04:14;;;;;;;13.90;8.20;;;;;;;13.74;53.04;100186.49;109914;1281;22250;-50
2024/03/22 13:06:42;;;;;;;13.20;8.10;;;;;;;13.53;53.85;100182.94;109897;1282;22978;-50
